sensor_id;sensor_type;location;lat;lon;timestamp;P1;durP1;ratioP1;P2;durP2;ratioP2
80565;SDS011;69915;54.862;10.730;2023-08-24T00:02:09;2.65;;;1.10;;
80565;SDS011;69915;54.862;10.730;2023-08-24T00:04:36;2.28;;;1.08;;
80565;SDS011;69915;54.862;10.730;2023-08-24T00:07:02;3.47;;;1.17;;
80565;SDS011;69915;54.862;10.730;2023-08-24T00:09:28;2.30;;;1.02;;
80565;SDS011;69915;54.862;10.730;2023-08-24T00:11:54;4.78;;;1.10;;
80565;SDS011;69915;54.862;10.730;2023-08-24T00:14:20;4.13;;;1.27;;
80565;SDS011;69915;54.862;10.730;2023-08-24T00:16:46;6.70;;;1.17;;
80565;SDS011;69915;54.862;10.730;2023-08-24T00:19:12;2.97;;;1.10;;
80565;SDS011;69915;54.862;10.730;2023-08-24T00:21:38;4.57;;;1.30;;
80565;SDS011;69915;54.862;10.730;2023-08-24T00:24:04;2.92;;;1.25;;
80565;SDS011;69915;54.862;10.730;2023-08-24T00:26:30;4.25;;;1.33;;
80565;SDS011;69915;54.862;10.730;2023-08-24T00:28:55;3.97;;;1.45;;
80565;SDS011;69915;54.862;10.730;2023-08-24T00:31:21;2.92;;;1.38;;
80565;SDS011;69915;54.862;10.730;2023-08-24T00:33:46;6.45;;;1.23;;
80565;SDS011;69915;54.862;10.730;2023-08-24T00:36:12;9.00;;;1.88;;
80565;SDS011;69915;54.862;10.730;2023-08-24T00:38:37;3.92;;;1.38;;
80565;SDS011;69915;54.862;10.730;2023-08-24T00:41:03;4.25;;;1.60;;
80565;SDS011;69915;54.862;10.730;2023-08-24T00:43:28;2.65;;;1.08;;
80565;SDS011;69915;54.862;10.730;2023-08-24T00:45:55;2.88;;;1.20;;
80565;SDS011;69915;54.862;10.730;2023-08-24T00:50:52;3.35;;;1.27;;
80565;SDS011;69915;54.862;10.730;2023-08-24T00:53:19;3.83;;;1.35;;
80565;SDS011;69915;54.862;10.730;2023-08-24T00:55:46;2.97;;;1.38;;
80565;SDS011;69915;54.862;10.730;2023-08-24T00:58:11;6.22;;;1.20;;
80565;SDS011;69915;54.862;10.730;2023-08-24T01:00:38;4.25;;;1.10;;
80565;SDS011;69915;54.862;10.730;2023-08-24T01:03:04;3.85;;;1.00;;
80565;SDS011;69915;54.862;10.730;2023-08-24T01:05:29;2.38;;;1.10;;
80565;SDS011;69915;54.862;10.730;2023-08-24T01:07:55;3.75;;;1.42;;
80565;SDS011;69915;54.862;10.730;2023-08-24T01:10:21;3.38;;;0.98;;
80565;SDS011;69915;54.862;10.730;2023-08-24T01:18:17;6.75;;;1.58;;
80565;SDS011;69915;54.862;10.730;2023-08-24T01:20:45;2.63;;;1.40;;
80565;SDS011;69915;54.862;10.730;2023-08-24T01:25:52;4.30;;;1.30;;
80565;SDS011;69915;54.862;10.730;2023-08-24T01:28:21;3.00;;;1.35;;
80565;SDS011;69915;54.862;10.730;2023-08-24T01:30:47;4.80;;;2.15;;
80565;SDS011;69915;54.862;10.730;2023-08-24T01:33:13;3.33;;;1.27;;
80565;SDS011;69915;54.862;10.730;2023-08-24T01:35:39;5.78;;;1.50;;
80565;SDS011;69915;54.862;10.730;2023-08-24T01:38:06;4.95;;;1.50;;
80565;SDS011;69915;54.862;10.730;2023-08-24T01:43:18;5.05;;;1.67;;
80565;SDS011;69915;54.862;10.730;2023-08-24T01:45:46;3.90;;;1.20;;
80565;SDS011;69915;54.862;10.730;2023-08-24T01:48:14;3.35;;;1.17;;
80565;SDS011;69915;54.862;10.730;2023-08-24T01:50:40;3.58;;;1.60;;
80565;SDS011;69915;54.862;10.730;2023-08-24T01:53:07;3.25;;;1.45;;
80565;SDS011;69915;54.862;10.730;2023-08-24T01:55:32;3.40;;;1.50;;
80565;SDS011;69915;54.862;10.730;2023-08-24T01:57:58;5.13;;;1.40;;
80565;SDS011;69915;54.862;10.730;2023-08-24T02:00:23;4.35;;;1.17;;
80565;SDS011;69915;54.862;10.730;2023-08-24T02:02:49;2.78;;;1.00;;
80565;SDS011;69915;54.862;10.730;2023-08-24T02:05:14;3.40;;;1.30;;
80565;SDS011;69915;54.862;10.730;2023-08-24T02:07:40;3.85;;;1.30;;
80565;SDS011;69915;54.862;10.730;2023-08-24T02:10:06;2.83;;;0.88;;
80565;SDS011;69915;54.862;10.730;2023-08-24T02:12:32;4.03;;;1.30;;
80565;SDS011;69915;54.862;10.730;2023-08-24T02:14:57;3.85;;;1.02;;
80565;SDS011;69915;54.862;10.730;2023-08-24T02:17:23;2.45;;;1.17;;
80565;SDS011;69915;54.862;10.730;2023-08-24T02:19:48;2.80;;;1.30;;
80565;SDS011;69915;54.862;10.730;2023-08-24T02:22:14;2.72;;;1.13;;
80565;SDS011;69915;54.862;10.730;2023-08-24T02:24:40;5.10;;;1.63;;
80565;SDS011;69915;54.862;10.730;2023-08-24T02:27:05;2.92;;;1.40;;
80565;SDS011;69915;54.862;10.730;2023-08-24T02:29:30;3.92;;;1.50;;
80565;SDS011;69915;54.862;10.730;2023-08-24T02:31:56;3.13;;;1.75;;
80565;SDS011;69915;54.862;10.730;2023-08-24T02:34:21;4.03;;;1.20;;
80565;SDS011;69915;54.862;10.730;2023-08-24T02:36:47;4.68;;;1.33;;
80565;SDS011;69915;54.862;10.730;2023-08-24T02:39:12;3.83;;;1.02;;
80565;SDS011;69915;54.862;10.730;2023-08-24T02:41:38;3.22;;;1.30;;
80565;SDS011;69915;54.862;10.730;2023-08-24T02:44:04;3.30;;;1.50;;
80565;SDS011;69915;54.862;10.730;2023-08-24T02:46:29;2.17;;;1.20;;
80565;SDS011;69915;54.862;10.730;2023-08-24T02:48:54;1.88;;;0.90;;
80565;SDS011;69915;54.862;10.730;2023-08-24T02:51:23;4.70;;;1.25;;
80565;SDS011;69915;54.862;10.730;2023-08-24T02:53:49;4.32;;;1.10;;
80565;SDS011;69915;54.862;10.730;2023-08-24T02:56:15;3.63;;;1.17;;
80565;SDS011;69915;54.862;10.730;2023-08-24T02:58:41;5.53;;;1.83;;
80565;SDS011;69915;54.862;10.730;2023-08-24T03:01:06;2.13;;;1.00;;
80565;SDS011;69915;54.862;10.730;2023-08-24T03:03:35;3.83;;;1.10;;
80565;SDS011;69915;54.862;10.730;2023-08-24T03:06:05;4.15;;;1.20;;
80565;SDS011;69915;54.862;10.730;2023-08-24T03:08:32;3.20;;;1.23;;
80565;SDS011;69915;54.862;10.730;2023-08-24T03:10:59;1.98;;;0.95;;
80565;SDS011;69915;54.862;10.730;2023-08-24T03:13:26;4.43;;;1.63;;
80565;SDS011;69915;54.862;10.730;2023-08-24T03:15:52;4.07;;;1.30;;
80565;SDS011;69915;54.862;10.730;2023-08-24T03:18:18;6.63;;;1.70;;
80565;SDS011;69915;54.862;10.730;2023-08-24T03:20:44;4.15;;;1.30;;
80565;SDS011;69915;54.862;10.730;2023-08-24T03:23:10;3.78;;;1.35;;
80565;SDS011;69915;54.862;10.730;2023-08-24T03:25:36;3.47;;;1.00;;
80565;SDS011;69915;54.862;10.730;2023-08-24T03:28:03;4.63;;;1.20;;
80565;SDS011;69915;54.862;10.730;2023-08-24T03:30:29;2.63;;;1.33;;
80565;SDS011;69915;54.862;10.730;2023-08-24T03:32:55;5.38;;;1.30;;
80565;SDS011;69915;54.862;10.730;2023-08-24T03:35:20;4.47;;;1.38;;
80565;SDS011;69915;54.862;10.730;2023-08-24T03:37:46;3.30;;;1.33;;
80565;SDS011;69915;54.862;10.730;2023-08-24T03:40:12;5.18;;;1.40;;
80565;SDS011;69915;54.862;10.730;2023-08-24T03:42:38;4.22;;;1.55;;
80565;SDS011;69915;54.862;10.730;2023-08-24T03:45:03;3.60;;;1.30;;
80565;SDS011;69915;54.862;10.730;2023-08-24T03:47:29;4.28;;;1.30;;
80565;SDS011;69915;54.862;10.730;2023-08-24T03:49:55;3.17;;;1.33;;
80565;SDS011;69915;54.862;10.730;2023-08-24T03:52:20;6.07;;;1.40;;
80565;SDS011;69915;54.862;10.730;2023-08-24T03:54:46;4.25;;;1.35;;
80565;SDS011;69915;54.862;10.730;2023-08-24T03:57:12;2.70;;;1.17;;
80565;SDS011;69915;54.862;10.730;2023-08-24T03:59:37;3.05;;;0.90;;
80565;SDS011;69915;54.862;10.730;2023-08-24T04:02:03;2.80;;;1.27;;
80565;SDS011;69915;54.862;10.730;2023-08-24T04:04:29;4.45;;;1.30;;
80565;SDS011;69915;54.862;10.730;2023-08-24T04:06:55;3.88;;;1.50;;
80565;SDS011;69915;54.862;10.730;2023-08-24T04:09:21;3.17;;;1.48;;
80565;SDS011;69915;54.862;10.730;2023-08-24T04:11:47;3.35;;;1.52;;
80565;SDS011;69915;54.862;10.730;2023-08-24T04:14:12;3.55;;;1.20;;
80565;SDS011;69915;54.862;10.730;2023-08-24T04:16:39;4.13;;;1.58;;
80565;SDS011;69915;54.862;10.730;2023-08-24T04:19:04;3.53;;;1.15;;
80565;SDS011;69915;54.862;10.730;2023-08-24T04:21:30;4.63;;;1.52;;
80565;SDS011;69915;54.862;10.730;2023-08-24T04:23:55;5.15;;;1.15;;
80565;SDS011;69915;54.862;10.730;2023-08-24T04:26:21;3.53;;;1.50;;
80565;SDS011;69915;54.862;10.730;2023-08-24T04:28:46;2.95;;;1.55;;
80565;SDS011;69915;54.862;10.730;2023-08-24T04:31:11;2.90;;;1.30;;
80565;SDS011;69915;54.862;10.730;2023-08-24T04:33:37;4.70;;;1.77;;
80565;SDS011;69915;54.862;10.730;2023-08-24T04:36:02;3.55;;;1.10;;
80565;SDS011;69915;54.862;10.730;2023-08-24T04:38:28;3.97;;;1.35;;
80565;SDS011;69915;54.862;10.730;2023-08-24T04:40:55;5.45;;;1.40;;
80565;SDS011;69915;54.862;10.730;2023-08-24T04:43:21;3.17;;;1.42;;
80565;SDS011;69915;54.862;10.730;2023-08-24T04:45:48;3.42;;;1.35;;
80565;SDS011;69915;54.862;10.730;2023-08-24T04:48:16;2.80;;;1.70;;
80565;SDS011;69915;54.862;10.730;2023-08-24T04:50:43;4.53;;;1.33;;
80565;SDS011;69915;54.862;10.730;2023-08-24T04:53:09;5.15;;;1.50;;
80565;SDS011;69915;54.862;10.730;2023-08-24T04:55:34;4.28;;;1.15;;
80565;SDS011;69915;54.862;10.730;2023-08-24T04:58:00;6.85;;;1.80;;
80565;SDS011;69915;54.862;10.730;2023-08-24T05:00:26;4.82;;;1.50;;
80565;SDS011;69915;54.862;10.730;2023-08-24T05:02:51;3.95;;;1.45;;
80565;SDS011;69915;54.862;10.730;2023-08-24T05:05:17;4.63;;;1.35;;
80565;SDS011;69915;54.862;10.730;2023-08-24T05:07:42;5.60;;;1.27;;
80565;SDS011;69915;54.862;10.730;2023-08-24T05:10:08;5.05;;;1.50;;
80565;SDS011;69915;54.862;10.730;2023-08-24T05:12:33;2.83;;;1.10;;
80565;SDS011;69915;54.862;10.730;2023-08-24T05:15:04;5.35;;;1.50;;
80565;SDS011;69915;54.862;10.730;2023-08-24T05:17:30;4.35;;;1.33;;
80565;SDS011;69915;54.862;10.730;2023-08-24T05:19:57;5.95;;;1.35;;
80565;SDS011;69915;54.862;10.730;2023-08-24T05:22:23;3.58;;;1.13;;
80565;SDS011;69915;54.862;10.730;2023-08-24T05:24:48;4.68;;;1.20;;
80565;SDS011;69915;54.862;10.730;2023-08-24T05:27:14;5.13;;;1.23;;
80565;SDS011;69915;54.862;10.730;2023-08-24T05:29:40;3.45;;;1.23;;
80565;SDS011;69915;54.862;10.730;2023-08-24T05:32:06;3.30;;;1.10;;
80565;SDS011;69915;54.862;10.730;2023-08-24T05:34:31;3.35;;;1.38;;
80565;SDS011;69915;54.862;10.730;2023-08-24T05:36:57;4.75;;;0.90;;
80565;SDS011;69915;54.862;10.730;2023-08-24T05:39:22;4.20;;;1.00;;
80565;SDS011;69915;54.862;10.730;2023-08-24T05:41:51;3.53;;;0.90;;
80565;SDS011;69915;54.862;10.730;2023-08-24T05:44:18;2.95;;;0.85;;
80565;SDS011;69915;54.862;10.730;2023-08-24T05:46:44;3.08;;;1.20;;
80565;SDS011;69915;54.862;10.730;2023-08-24T05:49:09;2.85;;;1.25;;
80565;SDS011;69915;54.862;10.730;2023-08-24T05:51:35;4.90;;;1.08;;
80565;SDS011;69915;54.862;10.730;2023-08-24T05:54:02;3.75;;;1.00;;
80565;SDS011;69915;54.862;10.730;2023-08-24T05:56:27;4.85;;;1.30;;
80565;SDS011;69915;54.862;10.730;2023-08-24T05:58:53;4.72;;;1.02;;
80565;SDS011;69915;54.862;10.730;2023-08-24T06:01:19;3.60;;;1.27;;
80565;SDS011;69915;54.862;10.730;2023-08-24T06:03:45;3.47;;;1.00;;
80565;SDS011;69915;54.862;10.730;2023-08-24T06:06:11;3.20;;;0.90;;
80565;SDS011;69915;54.862;10.730;2023-08-24T06:08:36;4.95;;;1.10;;
80565;SDS011;69915;54.862;10.730;2023-08-24T06:11:02;3.45;;;1.00;;
80565;SDS011;69915;54.862;10.730;2023-08-24T06:13:27;3.67;;;0.90;;
80565;SDS011;69915;54.862;10.730;2023-08-24T06:15:53;3.60;;;0.95;;
80565;SDS011;69915;54.862;10.730;2023-08-24T06:18:21;3.13;;;1.02;;
80565;SDS011;69915;54.862;10.730;2023-08-24T06:20:47;2.38;;;0.80;;
80565;SDS011;69915;54.862;10.730;2023-08-24T06:23:14;4.32;;;1.23;;
80565;SDS011;69915;54.862;10.730;2023-08-24T06:25:41;2.17;;;0.82;;
80565;SDS011;69915;54.862;10.730;2023-08-24T06:28:07;4.88;;;0.80;;
80565;SDS011;69915;54.862;10.730;2023-08-24T06:30:36;2.83;;;0.65;;
80565;SDS011;69915;54.862;10.730;2023-08-24T06:33:05;2.70;;;0.80;;
80565;SDS011;69915;54.862;10.730;2023-08-24T06:35:35;2.97;;;0.93;;
80565;SDS011;69915;54.862;10.730;2023-08-24T06:38:00;3.00;;;0.95;;
80565;SDS011;69915;54.862;10.730;2023-08-24T06:40:27;1.95;;;0.60;;
80565;SDS011;69915;54.862;10.730;2023-08-24T06:42:53;2.83;;;0.65;;
80565;SDS011;69915;54.862;10.730;2023-08-24T06:45:18;4.82;;;0.70;;
80565;SDS011;69915;54.862;10.730;2023-08-24T06:47:44;1.50;;;0.60;;
80565;SDS011;69915;54.862;10.730;2023-08-24T06:50:10;1.85;;;0.70;;
80565;SDS011;69915;54.862;10.730;2023-08-24T06:52:36;3.13;;;0.80;;
80565;SDS011;69915;54.862;10.730;2023-08-24T06:55:01;4.68;;;0.93;;
80565;SDS011;69915;54.862;10.730;2023-08-24T06:57:28;2.90;;;0.65;;
80565;SDS011;69915;54.862;10.730;2023-08-24T06:59:53;5.80;;;1.48;;
80565;SDS011;69915;54.862;10.730;2023-08-24T07:02:19;3.70;;;0.85;;
80565;SDS011;69915;54.862;10.730;2023-08-24T07:04:44;1.85;;;0.70;;
80565;SDS011;69915;54.862;10.730;2023-08-24T07:07:10;1.10;;;0.60;;
80565;SDS011;69915;54.862;10.730;2023-08-24T07:09:35;2.88;;;0.98;;
80565;SDS011;69915;54.862;10.730;2023-08-24T07:12:02;3.17;;;0.80;;
80565;SDS011;69915;54.862;10.730;2023-08-24T07:14:28;4.43;;;0.77;;
80565;SDS011;69915;54.862;10.730;2023-08-24T07:16:53;2.00;;;0.80;;
80565;SDS011;69915;54.862;10.730;2023-08-24T07:19:19;3.58;;;0.90;;
80565;SDS011;69915;54.862;10.730;2023-08-24T07:21:45;2.10;;;0.65;;
80565;SDS011;69915;54.862;10.730;2023-08-24T07:24:10;4.32;;;0.77;;
80565;SDS011;69915;54.862;10.730;2023-08-24T07:26:36;1.38;;;0.50;;
80565;SDS011;69915;54.862;10.730;2023-08-24T07:29:01;5.20;;;0.90;;
80565;SDS011;69915;54.862;10.730;2023-08-24T07:31:27;2.42;;;0.75;;
80565;SDS011;69915;54.862;10.730;2023-08-24T07:33:52;1.70;;;0.52;;
80565;SDS011;69915;54.862;10.730;2023-08-24T07:36:18;3.30;;;0.80;;
80565;SDS011;69915;54.862;10.730;2023-08-24T07:38:44;3.78;;;0.70;;
80565;SDS011;69915;54.862;10.730;2023-08-24T07:41:11;2.85;;;0.50;;
80565;SDS011;69915;54.862;10.730;2023-08-24T07:43:37;2.40;;;0.60;;
80565;SDS011;69915;54.862;10.730;2023-08-24T07:46:02;1.80;;;0.50;;
80565;SDS011;69915;54.862;10.730;2023-08-24T07:48:28;1.13;;;0.47;;
80565;SDS011;69915;54.862;10.730;2023-08-24T07:50:53;3.20;;;0.77;;
80565;SDS011;69915;54.862;10.730;2023-08-24T07:53:19;1.50;;;0.57;;
80565;SDS011;69915;54.862;10.730;2023-08-24T07:55:44;2.28;;;0.52;;
80565;SDS011;69915;54.862;10.730;2023-08-24T07:58:10;2.22;;;0.75;;
80565;SDS011;69915;54.862;10.730;2023-08-24T08:00:36;2.90;;;0.70;;
80565;SDS011;69915;54.862;10.730;2023-08-24T08:03:01;1.80;;;0.60;;
80565;SDS011;69915;54.862;10.730;2023-08-24T08:05:27;3.08;;;0.75;;
80565;SDS011;69915;54.862;10.730;2023-08-24T08:07:52;1.92;;;0.70;;
80565;SDS011;69915;54.862;10.730;2023-08-24T08:10:18;3.38;;;0.68;;
80565;SDS011;69915;54.862;10.730;2023-08-24T08:12:45;2.70;;;1.08;;
80565;SDS011;69915;54.862;10.730;2023-08-24T08:15:11;2.13;;;0.70;;
80565;SDS011;69915;54.862;10.730;2023-08-24T08:17:36;2.00;;;0.80;;
80565;SDS011;69915;54.862;10.730;2023-08-24T08:20:02;4.10;;;0.75;;
80565;SDS011;69915;54.862;10.730;2023-08-24T08:22:28;2.20;;;0.70;;
80565;SDS011;69915;54.862;10.730;2023-08-24T08:24:53;4.50;;;0.80;;
80565;SDS011;69915;54.862;10.730;2023-08-24T08:27:21;1.67;;;0.80;;
80565;SDS011;69915;54.862;10.730;2023-08-24T08:29:46;3.10;;;0.60;;
80565;SDS011;69915;54.862;10.730;2023-08-24T08:32:12;2.33;;;0.70;;
80565;SDS011;69915;54.862;10.730;2023-08-24T08:34:37;1.40;;;0.50;;
80565;SDS011;69915;54.862;10.730;2023-08-24T08:37:03;2.03;;;0.70;;
80565;SDS011;69915;54.862;10.730;2023-08-24T08:39:29;5.40;;;0.90;;
80565;SDS011;69915;54.862;10.730;2023-08-24T08:41:54;0.93;;;0.47;;
80565;SDS011;69915;54.862;10.730;2023-08-24T08:44:20;1.35;;;0.70;;
80565;SDS011;69915;54.862;10.730;2023-08-24T08:46:48;3.03;;;0.93;;
80565;SDS011;69915;54.862;10.730;2023-08-24T08:49:14;2.25;;;0.68;;
80565;SDS011;69915;54.862;10.730;2023-08-24T08:51:42;2.05;;;0.70;;
80565;SDS011;69915;54.862;10.730;2023-08-24T08:54:08;2.95;;;0.68;;
80565;SDS011;69915;54.862;10.730;2023-08-24T08:56:34;4.82;;;0.77;;
80565;SDS011;69915;54.862;10.730;2023-08-24T08:59:00;1.65;;;0.50;;
80565;SDS011;69915;54.862;10.730;2023-08-24T09:01:27;6.70;;;1.08;;
80565;SDS011;69915;54.862;10.730;2023-08-24T09:03:53;2.22;;;0.50;;
80565;SDS011;69915;54.862;10.730;2023-08-24T09:06:19;3.80;;;0.63;;
80565;SDS011;69915;54.862;10.730;2023-08-24T09:08:46;1.08;;;0.40;;
80565;SDS011;69915;54.862;10.730;2023-08-24T09:11:14;3.80;;;0.60;;
80565;SDS011;69915;54.862;10.730;2023-08-24T09:13:42;3.58;;;0.90;;
80565;SDS011;69915;54.862;10.730;2023-08-24T09:16:08;3.50;;;1.00;;
80565;SDS011;69915;54.862;10.730;2023-08-24T09:18:37;0.57;;;0.40;;
80565;SDS011;69915;54.862;10.730;2023-08-24T09:21:07;1.17;;;0.60;;
80565;SDS011;69915;54.862;10.730;2023-08-24T09:23:38;2.58;;;1.20;;
80565;SDS011;69915;54.862;10.730;2023-08-24T09:26:08;3.85;;;0.70;;
80565;SDS011;69915;54.862;10.730;2023-08-24T09:28:33;3.50;;;0.65;;
80565;SDS011;69915;54.862;10.730;2023-08-24T09:31:00;1.92;;;0.85;;
80565;SDS011;69915;54.862;10.730;2023-08-24T09:33:26;5.18;;;1.02;;
80565;SDS011;69915;54.862;10.730;2023-08-24T09:35:53;2.92;;;0.65;;
80565;SDS011;69915;54.862;10.730;2023-08-24T09:38:26;2.05;;;0.57;;
80565;SDS011;69915;54.862;10.730;2023-08-24T09:40:54;1.42;;;0.70;;
80565;SDS011;69915;54.862;10.730;2023-08-24T09:43:20;2.03;;;0.45;;
80565;SDS011;69915;54.862;10.730;2023-08-24T09:45:49;3.95;;;0.70;;
80565;SDS011;69915;54.862;10.730;2023-08-24T09:48:16;2.58;;;0.47;;
80565;SDS011;69915;54.862;10.730;2023-08-24T09:50:43;2.17;;;0.50;;
80565;SDS011;69915;54.862;10.730;2023-08-24T09:53:11;1.50;;;0.50;;
80565;SDS011;69915;54.862;10.730;2023-08-24T09:55:44;4.20;;;0.50;;
80565;SDS011;69915;54.862;10.730;2023-08-24T10:00:51;2.40;;;0.60;;
80565;SDS011;69915;54.862;10.730;2023-08-24T10:03:26;1.27;;;0.60;;
80565;SDS011;69915;54.862;10.730;2023-08-24T10:05:56;1.95;;;0.43;;
80565;SDS011;69915;54.862;10.730;2023-08-24T10:08:46;1.75;;;0.47;;
80565;SDS011;69915;54.862;10.730;2023-08-24T10:11:19;2.60;;;0.70;;
80565;SDS011;69915;54.862;10.730;2023-08-24T10:13:58;1.73;;;0.70;;
80565;SDS011;69915;54.862;10.730;2023-08-24T10:16:32;3.50;;;0.70;;
80565;SDS011;69915;54.862;10.730;2023-08-24T10:19:00;2.40;;;0.60;;
80565;SDS011;69915;54.862;10.730;2023-08-24T10:21:28;2.22;;;0.70;;
80565;SDS011;69915;54.862;10.730;2023-08-24T10:23:54;3.35;;;0.85;;
80565;SDS011;69915;54.862;10.730;2023-08-24T10:26:25;0.88;;;0.40;;
80565;SDS011;69915;54.862;10.730;2023-08-24T10:28:51;1.65;;;0.55;;
80565;SDS011;69915;54.862;10.730;2023-08-24T10:31:17;1.80;;;0.80;;
80565;SDS011;69915;54.862;10.730;2023-08-24T10:33:45;2.28;;;0.73;;
80565;SDS011;69915;54.862;10.730;2023-08-24T10:36:15;1.80;;;0.60;;
80565;SDS011;69915;54.862;10.730;2023-08-24T10:38:41;2.03;;;0.85;;
80565;SDS011;69915;54.862;10.730;2023-08-24T10:41:07;3.28;;;0.70;;
80565;SDS011;69915;54.862;10.730;2023-08-24T10:43:34;2.13;;;0.60;;
80565;SDS011;69915;54.862;10.730;2023-08-24T10:46:03;4.20;;;0.93;;
80565;SDS011;69915;54.862;10.730;2023-08-24T10:48:30;2.80;;;0.65;;
80565;SDS011;69915;54.862;10.730;2023-08-24T10:51:19;1.10;;;0.28;;
80565;SDS011;69915;54.862;10.730;2023-08-24T10:53:51;2.65;;;0.65;;
80565;SDS011;69915;54.862;10.730;2023-08-24T10:56:18;2.78;;;0.40;;
80565;SDS011;69915;54.862;10.730;2023-08-24T10:58:45;2.45;;;0.60;;
80565;SDS011;69915;54.862;10.730;2023-08-24T11:01:15;2.72;;;0.60;;
80565;SDS011;69915;54.862;10.730;2023-08-24T11:03:46;2.20;;;0.50;;
80565;SDS011;69915;54.862;10.730;2023-08-24T11:06:21;3.22;;;0.60;;
80565;SDS011;69915;54.862;10.730;2023-08-24T11:08:48;0.90;;;0.50;;
80565;SDS011;69915;54.862;10.730;2023-08-24T11:11:18;1.92;;;0.50;;
80565;SDS011;69915;54.862;10.730;2023-08-24T11:14:30;2.75;;;0.70;;
80565;SDS011;69915;54.862;10.730;2023-08-24T11:16:47;2.63;;;0.60;;
80565;SDS011;69915;54.862;10.730;2023-08-24T11:19:14;2.00;;;0.65;;
80565;SDS011;69915;54.862;10.730;2023-08-24T11:21:44;2.25;;;0.60;;
80565;SDS011;69915;54.862;10.730;2023-08-24T11:24:14;4.13;;;0.50;;
80565;SDS011;69915;54.862;10.730;2023-08-24T11:26:45;2.45;;;0.50;;
80565;SDS011;69915;54.862;10.730;2023-08-24T11:29:13;1.50;;;0.50;;
80565;SDS011;69915;54.862;10.730;2023-08-24T11:31:39;1.10;;;0.50;;
80565;SDS011;69915;54.862;10.730;2023-08-24T11:34:05;1.85;;;0.60;;
80565;SDS011;69915;54.862;10.730;2023-08-24T11:36:42;3.55;;;0.70;;
80565;SDS011;69915;54.862;10.730;2023-08-24T11:39:14;4.57;;;0.75;;
80565;SDS011;69915;54.862;10.730;2023-08-24T11:42:00;2.33;;;0.50;;
80565;SDS011;69915;54.862;10.730;2023-08-24T11:44:26;2.38;;;0.60;;
80565;SDS011;69915;54.862;10.730;2023-08-24T11:46:52;3.60;;;0.98;;
80565;SDS011;69915;54.862;10.730;2023-08-24T11:49:18;1.42;;;0.50;;
80565;SDS011;69915;54.862;10.730;2023-08-24T11:51:43;2.58;;;0.73;;
80565;SDS011;69915;54.862;10.730;2023-08-24T11:54:09;2.75;;;0.40;;
80565;SDS011;69915;54.862;10.730;2023-08-24T11:56:41;2.80;;;0.65;;
80565;SDS011;69915;54.862;10.730;2023-08-24T11:59:10;1.52;;;0.47;;
80565;SDS011;69915;54.862;10.730;2023-08-24T12:01:40;3.28;;;0.65;;
80565;SDS011;69915;54.862;10.730;2023-08-24T12:04:07;1.77;;;0.50;;
80565;SDS011;69915;54.862;10.730;2023-08-24T12:06:32;2.03;;;0.50;;
80565;SDS011;69915;54.862;10.730;2023-08-24T12:08:58;1.83;;;0.60;;
80565;SDS011;69915;54.862;10.730;2023-08-24T12:11:24;1.27;;;0.43;;
80565;SDS011;69915;54.862;10.730;2023-08-24T12:13:52;1.90;;;0.80;;
80565;SDS011;69915;54.862;10.730;2023-08-24T12:16:19;1.90;;;0.60;;
80565;SDS011;69915;54.862;10.730;2023-08-24T12:18:55;3.20;;;0.77;;
80565;SDS011;69915;54.862;10.730;2023-08-24T12:21:22;4.28;;;0.70;;
80565;SDS011;69915;54.862;10.730;2023-08-24T12:23:58;1.15;;;0.50;;
80565;SDS011;69915;54.862;10.730;2023-08-24T12:26:25;1.73;;;0.60;;
80565;SDS011;69915;54.862;10.730;2023-08-24T12:28:51;2.65;;;0.60;;
80565;SDS011;69915;54.862;10.730;2023-08-24T12:31:18;3.92;;;0.60;;
80565;SDS011;69915;54.862;10.730;2023-08-24T12:33:44;2.58;;;0.55;;
80565;SDS011;69915;54.862;10.730;2023-08-24T12:36:10;1.85;;;0.63;;
80565;SDS011;69915;54.862;10.730;2023-08-24T12:38:37;1.85;;;0.63;;
80565;SDS011;69915;54.862;10.730;2023-08-24T12:41:02;3.60;;;0.65;;
80565;SDS011;69915;54.862;10.730;2023-08-24T12:43:28;2.67;;;0.70;;
80565;SDS011;69915;54.862;10.730;2023-08-24T12:45:53;2.75;;;1.13;;
80565;SDS011;69915;54.862;10.730;2023-08-24T12:48:19;2.58;;;0.80;;
80565;SDS011;69915;54.862;10.730;2023-08-24T12:50:44;2.22;;;0.70;;
80565;SDS011;69915;54.862;10.730;2023-08-24T12:53:09;1.13;;;0.50;;
80565;SDS011;69915;54.862;10.730;2023-08-24T12:55:36;2.22;;;0.73;;
80565;SDS011;69915;54.862;10.730;2023-08-24T12:58:05;3.80;;;0.80;;
80565;SDS011;69915;54.862;10.730;2023-08-24T13:00:30;1.15;;;0.50;;
80565;SDS011;69915;54.862;10.730;2023-08-24T13:02:56;2.13;;;0.70;;
80565;SDS011;69915;54.862;10.730;2023-08-24T13:05:22;2.28;;;0.88;;
80565;SDS011;69915;54.862;10.730;2023-08-24T13:07:48;2.10;;;0.70;;
80565;SDS011;69915;54.862;10.730;2023-08-24T13:10:13;2.20;;;0.73;;
80565;SDS011;69915;54.862;10.730;2023-08-24T13:12:39;1.42;;;0.50;;
80565;SDS011;69915;54.862;10.730;2023-08-24T13:15:05;1.58;;;0.60;;
80565;SDS011;69915;54.862;10.730;2023-08-24T13:17:31;2.70;;;0.50;;
80565;SDS011;69915;54.862;10.730;2023-08-24T13:19:56;3.72;;;0.60;;
80565;SDS011;69915;54.862;10.730;2023-08-24T13:22:22;3.47;;;0.68;;
80565;SDS011;69915;54.862;10.730;2023-08-24T13:24:47;2.88;;;0.70;;
80565;SDS011;69915;54.862;10.730;2023-08-24T13:27:13;2.33;;;0.60;;
80565;SDS011;69915;54.862;10.730;2023-08-24T13:29:40;1.35;;;0.50;;
80565;SDS011;69915;54.862;10.730;2023-08-24T13:32:05;1.60;;;0.63;;
80565;SDS011;69915;54.862;10.730;2023-08-24T13:34:31;2.67;;;0.70;;
80565;SDS011;69915;54.862;10.730;2023-08-24T13:36:57;2.88;;;0.98;;
80565;SDS011;69915;54.862;10.730;2023-08-24T13:39:25;3.22;;;0.70;;
80565;SDS011;69915;54.862;10.730;2023-08-24T13:41:53;2.38;;;0.77;;
80565;SDS011;69915;54.862;10.730;2023-08-24T13:44:19;2.60;;;0.90;;
80565;SDS011;69915;54.862;10.730;2023-08-24T13:46:44;2.72;;;0.63;;
80565;SDS011;69915;54.862;10.730;2023-08-24T13:49:10;3.42;;;0.60;;
80565;SDS011;69915;54.862;10.730;2023-08-24T13:51:35;3.88;;;0.70;;
80565;SDS011;69915;54.862;10.730;2023-08-24T13:54:02;2.15;;;0.57;;
80565;SDS011;69915;54.862;10.730;2023-08-24T13:56:27;3.38;;;0.70;;
80565;SDS011;69915;54.862;10.730;2023-08-24T13:58:54;3.00;;;0.73;;
80565;SDS011;69915;54.862;10.730;2023-08-24T14:01:20;1.02;;;0.60;;
80565;SDS011;69915;54.862;10.730;2023-08-24T14:03:45;1.73;;;0.73;;
80565;SDS011;69915;54.862;10.730;2023-08-24T14:06:11;3.03;;;0.85;;
80565;SDS011;69915;54.862;10.730;2023-08-24T14:08:36;2.03;;;0.75;;
80565;SDS011;69915;54.862;10.730;2023-08-24T14:11:02;1.58;;;0.57;;
80565;SDS011;69915;54.862;10.730;2023-08-24T14:13:28;2.63;;;0.73;;
80565;SDS011;69915;54.862;10.730;2023-08-24T14:15:54;1.65;;;0.60;;
80565;SDS011;69915;54.862;10.730;2023-08-24T14:18:21;1.83;;;0.90;;
80565;SDS011;69915;54.862;10.730;2023-08-24T14:20:46;3.15;;;0.75;;
80565;SDS011;69915;54.862;10.730;2023-08-24T14:23:12;2.70;;;0.70;;
80565;SDS011;69915;54.862;10.730;2023-08-24T14:25:38;1.75;;;0.80;;
80565;SDS011;69915;54.862;10.730;2023-08-24T14:28:03;2.13;;;1.00;;
80565;SDS011;69915;54.862;10.730;2023-08-24T14:30:29;2.65;;;0.80;;
80565;SDS011;69915;54.862;10.730;2023-08-24T14:32:54;3.33;;;0.60;;
80565;SDS011;69915;54.862;10.730;2023-08-24T14:35:19;1.92;;;0.70;;
80565;SDS011;69915;54.862;10.730;2023-08-24T14:37:45;2.28;;;0.52;;
80565;SDS011;69915;54.862;10.730;2023-08-24T14:40:10;2.35;;;0.95;;
80565;SDS011;69915;54.862;10.730;2023-08-24T14:42:36;1.98;;;0.73;;
80565;SDS011;69915;54.862;10.730;2023-08-24T14:45:01;1.75;;;0.50;;
80565;SDS011;69915;54.862;10.730;2023-08-24T14:47:27;6.60;;;0.73;;